Time;durP1;ratioP1;P1;durP2;ratioP2;P2;SDS_P1;SDS_P2;PMS_P1;PMS_P2;Temp;Humidity;BMP_temperature;BMP_pressure;BME280_temperature;BME280_humidity;BME280_pressure;Samples;Min_cycle;Max_cycle;Signal;HPM_P1;HPM_P2
2021/04/24 00:01:31;;;;;;;1.65;1.55;;;;;;;;;;5032968;28;20183;-63
2021/04/24 00:04:00;;;;;;;0.93;0.93;;;;;;;;;;5032730;28;20195;-61
2021/04/24 00:06:27;;;;;;;2.25;1.80;;;;;;;;;;5032641;28;20180;-61
2021/04/24 00:08:53;;;;;;;1.20;1.20;;;;;;;;;;5032164;28;20667;-62
2021/04/24 00:11:21;;;;;;;1.27;1.17;;;;;;;;;;5032587;28;20178;-61
2021/04/24 00:13:47;;;;;;;1.05;1.05;;;;;;;;;;5032656;28;20207;-62
2021/04/24 00:16:13;;;;;;;1.50;1.17;;;;;;;;;;5032045;28;20583;-62
2021/04/24 00:18:39;;;;;;;0.93;0.93;;;;;;;;;;5032477;28;20259;-62
2021/04/24 00:21:05;;;;;;;1.07;0.97;;;;;;;;;;5032488;28;20615;-62
2021/04/24 00:23:31;;;;;;;1.75;1.00;;;;;;;;;;5031995;28;20461;-61
2021/04/24 00:25:58;;;;;;;1.05;0.95;;;;;;;;;;5032540;28;20204;-62
2021/04/24 00:28:24;;;;;;;1.25;1.02;;;;;;;;;;5032464;28;20696;-62
2021/04/24 00:30:50;;;;;;;0.90;0.90;;;;;;;;;;5031834;28;20182;-62
2021/04/24 00:33:17;;;;;;;3.10;1.42;;;;;;;;;;5032169;28;20206;-61
2021/04/24 00:35:43;;;;;;;0.75;0.75;;;;;;;;;;5031948;28;20212;-61
2021/04/24 00:38:09;;;;;;;1.55;1.17;;;;;;;;;;5032178;28;20204;-62
2021/04/24 00:40:35;;;;;;;2.53;1.90;;;;;;;;;;5031604;28;20169;-62
2021/04/24 00:43:01;;;;;;;3.30;1.85;;;;;;;;;;5032098;28;20176;-62
2021/04/24 00:45:28;;;;;;;2.17;2.08;;;;;;;;;;5032094;28;20189;-62
2021/04/24 00:47:55;;;;;;;1.13;1.02;;;;;;;;;;5032033;28;20181;-62
2021/04/24 00:50:28;;;;;;;6.47;1.83;;;;;;;;;;5031030;28;20250;-62
2021/04/24 00:52:54;;;;;;;2.83;1.40;;;;;;;;;;5031884;28;20208;-62
2021/04/24 00:55:20;;;;;;;0.75;0.75;;;;;;;;;;5032032;28;20206;-62
2021/04/24 00:57:46;;;;;;;1.50;1.40;;;;;;;;;;5031906;28;20258;-62
2021/04/24 01:00:14;;;;;;;2.83;1.23;;;;;;;;;;5031329;28;20266;-62
2021/04/24 01:02:40;;;;;;;0.90;0.90;;;;;;;;;;5031726;28;20235;-61
2021/04/24 01:05:10;;;;;;;0.70;0.70;;;;;;;;;;5031783;28;20193;-62
2021/04/24 01:07:36;;;;;;;0.70;0.70;;;;;;;;;;5031722;28;20180;-61
2021/04/24 01:10:04;;;;;;;0.83;0.83;;;;;;;;;;5031077;28;20184;-61
2021/04/24 01:12:30;;;;;;;2.20;1.50;;;;;;;;;;5031864;28;20493;-61
2021/04/24 01:14:56;;;;;;;1.00;1.00;;;;;;;;;;5029149;28;20220;-62
2021/04/24 01:17:22;;;;;;;0.50;0.50;;;;;;;;;;5031517;28;20409;-62
2021/04/24 01:19:48;;;;;;;1.48;0.88;;;;;;;;;;5030680;28;20170;-62
2021/04/24 01:22:14;;;;;;;0.65;0.63;;;;;;;;;;5031886;28;20237;-62
2021/04/24 01:24:40;;;;;;;1.10;1.10;;;;;;;;;;5031593;28;20243;-62
2021/04/24 01:27:06;;;;;;;1.30;1.25;;;;;;;;;;5031432;28;20175;-62
2021/04/24 01:29:33;;;;;;;0.90;0.90;;;;;;;;;;5030707;28;20171;-62
2021/04/24 01:32:00;;;;;;;1.33;1.05;;;;;;;;;;5031451;28;20184;-62
2021/04/24 01:34:27;;;;;;;1.20;1.20;;;;;;;;;;5031434;28;20193;-62
2021/04/24 01:36:54;;;;;;;2.35;2.20;;;;;;;;;;5031153;28;20181;-62
2021/04/24 01:39:20;;;;;;;1.10;1.10;;;;;;;;;;5030742;28;20171;-62
2021/04/24 01:41:46;;;;;;;1.20;1.00;;;;;;;;;;5031588;28;20653;-62
2021/04/24 01:44:12;;;;;;;1.60;1.58;;;;;;;;;;5040709;28;20210;-62
2021/04/24 01:46:38;;;;;;;1.80;1.70;;;;;;;;;;5051643;28;20253;-61
2021/04/24 01:49:04;;;;;;;1.42;1.33;;;;;;;;;;5050568;28;20207;-61
2021/04/24 01:51:30;;;;;;;2.65;1.63;;;;;;;;;;5051256;28;20177;-62
2021/04/24 01:53:56;;;;;;;1.42;1.42;;;;;;;;;;5049151;28;20206;-61
2021/04/24 01:56:22;;;;;;;3.42;2.42;;;;;;;;;;5051109;28;20198;-62
2021/04/24 01:58:50;;;;;;;2.15;1.08;;;;;;;;;;5050743;28;20634;-61
2021/04/24 02:01:17;;;;;;;2.05;1.15;;;;;;;;;;5051177;28;20259;-62
2021/04/24 02:03:47;;;;;;;2.05;0.90;;;;;;;;;;5051089;28;20226;-62
2021/04/24 02:06:13;;;;;;;1.27;1.27;;;;;;;;;;5051252;28;20177;-62
2021/04/24 02:08:41;;;;;;;1.50;1.45;;;;;;;;;;5050985;28;20266;-60
2021/04/24 02:11:08;;;;;;;1.70;1.60;;;;;;;;;;5050550;28;20192;-62
2021/04/24 02:13:36;;;;;;;1.55;1.45;;;;;;;;;;5050952;28;20209;-61
2021/04/24 02:16:04;;;;;;;1.70;1.50;;;;;;;;;;5050980;28;20170;-61
2021/04/24 02:18:30;;;;;;;0.95;0.95;;;;;;;;;;5051257;28;20167;-62
2021/04/24 02:20:56;;;;;;;2.38;2.28;;;;;;;;;;5050392;28;20170;-62
2021/04/24 02:23:23;;;;;;;2.10;1.40;;;;;;;;;;5050851;28;20280;-62
2021/04/24 02:25:49;;;;;;;1.85;1.75;;;;;;;;;;5051016;28;20645;-62
2021/04/24 02:28:16;;;;;;;2.17;2.08;;;;;;;;;;5050788;28;20180;-62
2021/04/24 02:30:42;;;;;;;1.35;1.27;;;;;;;;;;5050067;28;20182;-62
2021/04/24 02:33:09;;;;;;;0.80;0.80;;;;;;;;;;5050771;28;20240;-62
2021/04/24 02:35:46;;;;;;;1.20;1.10;;;;;;;;;;5050936;28;20538;-62
2021/04/24 02:38:15;;;;;;;2.55;2.35;;;;;;;;;;5050740;28;20362;-60
2021/04/24 02:40:41;;;;;;;1.05;1.05;;;;;;;;;;5052129;28;20178;-61
2021/04/24 02:43:07;;;;;;;0.95;0.95;;;;;;;;;;5053372;28;20288;-62
2021/04/24 02:45:33;;;;;;;1.38;1.38;;;;;;;;;;5034289;28;20257;-62
2021/04/24 02:47:59;;;;;;;0.98;0.98;;;;;;;;;;5034331;28;20199;-62
2021/04/24 02:50:25;;;;;;;1.38;1.38;;;;;;;;;;5033606;28;20182;-62
2021/04/24 02:52:51;;;;;;;0.60;0.60;;;;;;;;;;5034170;28;20583;-61
2021/04/24 02:55:18;;;;;;;0.80;0.80;;;;;;;;;;5034684;28;20179;-61
2021/04/24 02:57:44;;;;;;;2.03;1.92;;;;;;;;;;5034057;28;20417;-61
2021/04/24 03:00:12;;;;;;;1.02;1.02;;;;;;;;;;5033566;28;20176;-62
2021/04/24 03:02:38;;;;;;;2.67;2.50;;;;;;;;;;5034058;28;20181;-62
2021/04/24 03:05:15;;;;;;;0.85;0.85;;;;;;;;;;5034032;28;20198;-62
2021/04/24 03:07:41;;;;;;;3.25;1.90;;;;;;;;;;5034014;28;20640;-62
2021/04/24 03:10:08;;;;;;;2.30;2.00;;;;;;;;;;5033253;28;20183;-62
2021/04/24 03:12:35;;;;;;;1.40;1.30;;;;;;;;;;5033831;28;20204;-62
2021/04/24 03:15:01;;;;;;;1.05;1.05;;;;;;;;;;5033876;28;20194;-62
2021/04/24 03:17:27;;;;;;;4.43;2.45;;;;;;;;;;5033723;28;20260;-62
2021/04/24 03:19:53;;;;;;;1.50;1.08;;;;;;;;;;5032678;28;20169;-61
2021/04/24 03:22:19;;;;;;;1.08;1.00;;;;;;;;;;5033798;28;20251;-62
2021/04/24 03:24:45;;;;;;;2.80;2.00;;;;;;;;;;5033546;28;20195;-62
2021/04/24 03:27:11;;;;;;;0.70;0.70;;;;;;;;;;5033598;28;20184;-62
2021/04/24 03:29:37;;;;;;;1.27;1.17;;;;;;;;;;5031660;28;20239;-62
2021/04/24 03:32:03;;;;;;;2.13;2.03;;;;;;;;;;5033042;28;20201;-62
2021/04/24 03:34:29;;;;;;;3.13;2.92;;;;;;;;;;5033467;28;20193;-63
2021/04/24 03:36:55;;;;;;;1.20;1.20;;;;;;;;;;5033381;28;20629;-62
2021/04/24 03:39:22;;;;;;;0.50;0.50;;;;;;;;;;5032655;28;20188;-62
2021/04/24 03:41:48;;;;;;;2.05;1.48;;;;;;;;;;5033463;28;20302;-62
2021/04/24 03:44:14;;;;;;;1.60;1.05;;;;;;;;;;5042967;28;20286;-62
2021/04/24 03:46:40;;;;;;;0.80;0.80;;;;;;;;;;5053128;28;20206;-62
2021/04/24 03:49:06;;;;;;;0.60;0.60;;;;;;;;;;5052410;28;20586;-62
2021/04/24 03:51:32;;;;;;;1.70;1.00;;;;;;;;;;5053150;28;20234;-62
2021/04/24 03:53:58;;;;;;;1.13;1.13;;;;;;;;;;5052972;28;20999;-62
2021/04/24 03:56:24;;;;;;;0.95;0.95;;;;;;;;;;5052953;28;20201;-62
2021/04/24 03:58:50;;;;;;;1.13;1.13;;;;;;;;;;5051357;28;20169;-61
2021/04/24 04:01:16;;;;;;;0.80;0.75;;;;;;;;;;5042952;28;20186;-62
2021/04/24 04:03:42;;;;;;;1.23;1.13;;;;;;;;;;5032934;28;20197;-62
2021/04/24 04:06:08;;;;;;;1.17;1.05;;;;;;;;;;5033095;28;20176;-62
2021/04/24 04:08:34;;;;;;;0.70;0.70;;;;;;;;;;5052673;28;20168;-63
2021/04/24 04:11:00;;;;;;;1.13;1.13;;;;;;;;;;5052168;28;20183;-62
2021/04/24 04:13:26;;;;;;;1.48;1.35;;;;;;;;;;5052463;28;20243;-62
2021/04/24 04:15:52;;;;;;;1.42;1.42;;;;;;;;;;5052679;28;20192;-62
2021/04/24 04:18:19;;;;;;;0.98;0.98;;;;;;;;;;5052740;28;20222;-62
2021/04/24 04:20:46;;;;;;;0.80;0.80;;;;;;;;;;5052064;28;20175;-62
2021/04/24 04:23:12;;;;;;;1.67;1.63;;;;;;;;;;5047328;28;20665;-62
2021/04/24 04:25:39;;;;;;;1.33;1.23;;;;;;;;;;5032594;28;20181;-62
2021/04/24 04:28:05;;;;;;;0.70;0.70;;;;;;;;;;5032490;28;20176;-62
2021/04/24 04:30:31;;;;;;;1.05;1.05;;;;;;;;;;5045016;28;20180;-61
2021/04/24 04:32:58;;;;;;;1.05;0.93;;;;;;;;;;5041198;28;20287;-63
2021/04/24 04:35:24;;;;;;;0.73;0.73;;;;;;;;;;5033230;28;20173;-61
2021/04/24 04:37:50;;;;;;;2.10;1.02;;;;;;;;;;5050168;28;20196;-62
2021/04/24 04:40:16;;;;;;;0.60;0.60;;;;;;;;;;5038604;28;20200;-62
2021/04/24 04:42:43;;;;;;;0.90;0.90;;;;;;;;;;5051842;28;20179;-62
2021/04/24 04:45:10;;;;;;;2.33;2.22;;;;;;;;;;5032033;28;20258;-62
2021/04/24 04:47:36;;;;;;;1.70;1.60;;;;;;;;;;5031930;28;20224;-62
2021/04/24 04:50:03;;;;;;;0.60;0.60;;;;;;;;;;5038350;28;20176;-62
2021/04/24 04:52:29;;;;;;;1.40;1.40;;;;;;;;;;5051653;28;20289;-62
2021/04/24 04:54:55;;;;;;;0.90;0.90;;;;;;;;;;5050275;28;20195;-61
2021/04/24 04:57:21;;;;;;;1.42;1.33;;;;;;;;;;5048251;28;20203;-62
2021/04/24 04:59:46;;;;;;;1.60;1.50;;;;;;;;;;5033882;28;20235;-62
2021/04/24 05:02:12;;;;;;;1.57;1.57;;;;;;;;;;5033710;28;20189;-61
2021/04/24 05:04:38;;;;;;;0.57;0.57;;;;;;;;;;5031716;28;20878;-62
2021/04/24 05:07:04;;;;;;;1.27;1.27;;;;;;;;;;5042418;28;20218;-62
2021/04/24 05:09:30;;;;;;;0.70;0.70;;;;;;;;;;5033526;28;20796;-62
2021/04/24 05:11:57;;;;;;;1.40;1.40;;;;;;;;;;5031554;28;20177;-63
2021/04/24 05:14:23;;;;;;;2.63;1.50;;;;;;;;;;5039917;28;20231;-62
2021/04/24 05:16:49;;;;;;;1.40;1.40;;;;;;;;;;5051649;28;20178;-63
2021/04/24 05:19:15;;;;;;;0.70;0.70;;;;;;;;;;5032103;28;20250;-62
2021/04/24 05:21:41;;;;;;;2.92;1.83;;;;;;;;;;5039213;28;20180;-62
2021/04/24 05:24:07;;;;;;;1.00;1.00;;;;;;;;;;5042046;28;20208;-62
2021/04/24 05:26:34;;;;;;;1.60;1.38;;;;;;;;;;5050071;28;20564;-63
2021/04/24 05:29:00;;;;;;;3.70;2.60;;;;;;;;;;5050419;28;20533;-63
2021/04/24 05:31:26;;;;;;;1.48;1.40;;;;;;;;;;5051054;28;20179;-63
2021/04/24 05:33:53;;;;;;;5.57;1.95;;;;;;;;;;5050805;28;20214;-62
2021/04/24 05:36:19;;;;;;;2.22;2.13;;;;;;;;;;5051062;28;20300;-63
2021/04/24 05:38:45;;;;;;;1.40;1.40;;;;;;;;;;5050591;28;20168;-63
2021/04/24 05:41:14;;;;;;;1.13;1.13;;;;;;;;;;5050853;28;20586;-62
2021/04/24 05:43:40;;;;;;;1.25;1.20;;;;;;;;;;5050958;28;20192;-62
2021/04/24 05:46:06;;;;;;;1.15;1.15;;;;;;;;;;5050893;28;20183;-62
2021/04/24 05:48:32;;;;;;;1.57;1.47;;;;;;;;;;5050833;28;20238;-63
2021/04/24 05:50:59;;;;;;;0.90;0.90;;;;;;;;;;5050510;28;20407;-62
2021/04/24 05:53:25;;;;;;;1.58;1.40;;;;;;;;;;5050800;28;20204;-63
2021/04/24 05:55:51;;;;;;;1.70;1.60;;;;;;;;;;5050962;28;20218;-63
2021/04/24 05:58:17;;;;;;;1.30;1.30;;;;;;;;;;5050777;28;20160;-63
2021/04/24 06:00:43;;;;;;;0.90;0.90;;;;;;;;;;5050199;28;20663;-62
2021/04/24 06:03:09;;;;;;;1.35;1.25;;;;;;;;;;5050780;28;20204;-62
2021/04/24 06:05:35;;;;;;;2.58;1.70;;;;;;;;;;5051109;28;20176;-63
2021/04/24 06:08:01;;;;;;;1.80;1.70;;;;;;;;;;5050389;28;20176;-63
2021/04/24 06:10:27;;;;;;;1.30;1.23;;;;;;;;;;5049384;28;20178;-64
2021/04/24 06:12:53;;;;;;;2.67;2.47;;;;;;;;;;5050808;28;20199;-63
2021/04/24 06:15:20;;;;;;;1.30;1.10;;;;;;;;;;5052807;28;20176;-63
2021/04/24 06:17:47;;;;;;;0.98;0.93;;;;;;;;;;5054797;28;20226;-62
2021/04/24 06:20:14;;;;;;;1.90;1.80;;;;;;;;;;5054296;28;20253;-63
2021/04/24 06:22:40;;;;;;;1.65;1.55;;;;;;;;;;5051547;28;20272;-63
2021/04/24 06:25:08;;;;;;;1.25;1.25;;;;;;;;;;5054336;28;20279;-63
2021/04/24 06:27:35;;;;;;;0.73;0.73;;;;;;;;;;5054316;28;20529;-63
2021/04/24 06:30:01;;;;;;;2.10;2.00;;;;;;;;;;5053375;28;20208;-63
2021/04/24 06:32:27;;;;;;;2.35;2.05;;;;;;;;;;5053903;28;20241;-62
2021/04/24 06:34:53;;;;;;;2.73;2.03;;;;;;;;;;5054229;28;20198;-63
2021/04/24 06:37:19;;;;;;;1.35;1.25;;;;;;;;;;5054214;28;20749;-63
2021/04/24 06:39:45;;;;;;;2.15;1.95;;;;;;;;;;5053629;28;20206;-63
2021/04/24 06:42:11;;;;;;;1.40;1.40;;;;;;;;;;5053813;28;20205;-62
2021/04/24 06:44:37;;;;;;;1.58;1.52;;;;;;;;;;5053868;28;20440;-63
2021/04/24 06:47:03;;;;;;;8.50;1.83;;;;;;;;;;5053914;28;20174;-63
2021/04/24 06:49:29;;;;;;;3.92;1.80;;;;;;;;;;5053270;28;20171;-63
2021/04/24 06:51:55;;;;;;;1.83;1.73;;;;;;;;;;5054094;28;20659;-63
2021/04/24 06:54:21;;;;;;;4.18;1.67;;;;;;;;;;5053351;28;20461;-63
2021/04/24 06:56:47;;;;;;;6.70;2.08;;;;;;;;;;5054240;28;20236;-62
2021/04/24 06:59:13;;;;;;;1.67;1.58;;;;;;;;;;5053181;28;20175;-63
2021/04/24 07:01:39;;;;;;;1.90;1.80;;;;;;;;;;5053727;28;20642;-63
2021/04/24 07:04:05;;;;;;;5.40;3.00;;;;;;;;;;5052780;28;20491;-63
2021/04/24 07:06:31;;;;;;;6.88;3.75;;;;;;;;;;5053024;28;20175;-63
2021/04/24 07:08:57;;;;;;;2.20;2.10;;;;;;;;;;5052952;28;20708;-63
2021/04/24 07:11:23;;;;;;;3.15;1.75;;;;;;;;;;5052198;28;20458;-63
2021/04/24 07:13:49;;;;;;;1.90;1.80;;;;;;;;;;5053257;28;20268;-63
2021/04/24 07:16:15;;;;;;;2.78;2.25;;;;;;;;;;5053481;28;20402;-63
2021/04/24 07:18:43;;;;;;;3.03;1.53;;;;;;;;;;5052870;28;20172;-63
2021/04/24 07:21:09;;;;;;;3.58;3.00;;;;;;;;;;5053341;28;20414;-63
2021/04/24 07:23:36;;;;;;;1.67;1.57;;;;;;;;;;5053312;28;20196;-63
2021/04/24 07:26:02;;;;;;;2.75;2.55;;;;;;;;;;5052958;28;20776;-63
2021/04/24 07:28:28;;;;;;;2.17;1.98;;;;;;;;;;5052930;28;20183;-63
2021/04/24 07:30:55;;;;;;;6.05;2.92;;;;;;;;;;5052007;28;20647;-63
2021/04/24 07:33:23;;;;;;;2.17;2.00;;;;;;;;;;5052980;28;20207;-63
2021/04/24 07:35:49;;;;;;;2.38;2.17;;;;;;;;;;5053255;28;20165;-63
2021/04/24 07:38:15;;;;;;;2.28;1.63;;;;;;;;;;5051842;28;20639;-63
2021/04/24 07:40:41;;;;;;;2.60;2.40;;;;;;;;;;5052391;28;20559;-63
2021/04/24 07:43:07;;;;;;;1.90;1.80;;;;;;;;;;5053011;28;20196;-63
2021/04/24 07:45:33;;;;;;;3.33;2.22;;;;;;;;;;5052913;28;20172;-63
2021/04/24 07:47:59;;;;;;;3.67;2.13;;;;;;;;;;5052821;28;20631;-64
2021/04/24 07:50:26;;;;;;;2.63;2.03;;;;;;;;;;5050787;28;20226;-63
2021/04/24 07:52:52;;;;;;;3.20;2.63;;;;;;;;;;5052560;28;20487;-63
2021/04/24 07:55:18;;;;;;;3.40;3.07;;;;;;;;;;5052120;28;20702;-63
2021/04/24 07:57:44;;;;;;;2.60;2.40;;;;;;;;;;5052528;28;20407;-63
2021/04/24 08:00:10;;;;;;;3.08;2.88;;;;;;;;;;5051871;28;20402;-63
2021/04/24 08:02:36;;;;;;;3.85;2.25;;;;;;;;;;5052462;28;20183;-63
2021/04/24 08:05:03;;;;;;;3.38;2.55;;;;;;;;;;5051866;28;20195;-63
2021/04/24 08:07:29;;;;;;;3.15;2.85;;;;;;;;;;5051943;28;20662;-63
2021/04/24 08:09:55;;;;;;;2.50;2.07;;;;;;;;;;5051542;28;20192;-64
2021/04/24 08:12:21;;;;;;;3.00;2.40;;;;;;;;;;5052170;28;20411;-63
2021/04/24 08:14:47;;;;;;;1.90;1.80;;;;;;;;;;5052460;28;20758;-64
2021/04/24 08:17:14;;;;;;;2.60;2.07;;;;;;;;;;5051577;28;20422;-64
2021/04/24 08:19:40;;;;;;;3.80;3.03;;;;;;;;;;5050635;28;20488;-64
2021/04/24 08:22:06;;;;;;;5.33;3.00;;;;;;;;;;5052110;28;20435;-64
2021/04/24 08:24:33;;;;;;;2.63;2.40;;;;;;;;;;5051833;28;20996;-64
2021/04/24 08:26:59;;;;;;;2.50;2.27;;;;;;;;;;5051886;28;20389;-64
2021/04/24 08:29:25;;;;;;;2.30;2.10;;;;;;;;;;5051089;28;20860;-62
2021/04/24 08:31:51;;;;;;;3.40;3.10;;;;;;;;;;5051391;28;20440;-62
2021/04/24 08:34:20;;;;;;;3.67;2.83;;;;;;;;;;5051567;28;20461;-62
2021/04/24 08:36:46;;;;;;;6.23;3.23;;;;;;;;;;5051672;28;20437;-62
2021/04/24 08:39:12;;;;;;;2.97;2.20;;;;;;;;;;5050448;28;20381;-62
2021/04/24 08:41:38;;;;;;;4.57;2.60;;;;;;;;;;5051476;28;20899;-62
2021/04/24 08:44:04;;;;;;;2.33;2.13;;;;;;;;;;5051013;28;20981;-63
2021/04/24 08:46:30;;;;;;;4.60;3.00;;;;;;;;;;5051734;28;20402;-62
2021/04/24 08:48:57;;;;;;;3.90;2.57;;;;;;;;;;5050801;28;20821;-62
2021/04/24 08:51:24;;;;;;;3.90;2.43;;;;;;;;;;5050082;28;20957;-62
2021/04/24 08:53:50;;;;;;;2.90;2.70;;;;;;;;;;5051076;28;20472;-62
2021/04/24 08:56:18;;;;;;;2.77;2.27;;;;;;;;;;5051135;28;20506;-62
2021/04/24 08:58:44;;;;;;;3.30;2.27;;;;;;;;;;5050588;28;20493;-62
2021/04/24 09:01:10;;;;;;;3.17;2.87;;;;;;;;;;5051037;28;20404;-62
2021/04/24 09:03:36;;;;;;;2.33;2.00;;;;;;;;;;5051167;28;20890;-62
2021/04/24 09:06:02;;;;;;;3.83;2.67;;;;;;;;;;5051305;28;20417;-62
2021/04/24 09:08:29;;;;;;;4.77;2.70;;;;;;;;;;5050887;28;20835;-62
2021/04/24 09:10:59;;;;;;;3.40;2.50;;;;;;;;;;5050412;28;20780;-62
2021/04/24 09:13:26;;;;;;;2.83;2.63;;;;;;;;;;5050953;28;20468;-62
2021/04/24 09:15:53;;;;;;;3.97;2.70;;;;;;;;;;5050970;28;20410;-63
2021/04/24 09:18:20;;;;;;;3.43;2.20;;;;;;;;;;5051033;28;20441;-63
2021/04/24 09:20:51;;;;;;;4.87;2.63;;;;;;;;;;5050035;28;20930;-62
2021/04/24 09:23:18;;;;;;;2.90;2.50;;;;;;;;;;5050898;28;20850;-62
2021/04/24 09:25:57;;;;;;;3.60;2.10;;;;;;;;;;5050821;28;20410;-63
2021/04/24 09:28:37;;;;;;;3.33;2.10;;;;;;;;;;5051167;28;20399;-63
2021/04/24 09:31:09;;;;;;;2.93;2.60;;;;;;;;;;5050524;28;20495;-63
2021/04/24 09:33:37;;;;;;;3.40;2.03;;;;;;;;;;5050313;28;20479;-63
2021/04/24 09:36:04;;;;;;;4.50;2.47;;;;;;;;;;5050617;28;20897;-62
2021/04/24 09:38:34;;;;;;;4.20;2.60;;;;;;;;;;5050454;28;20942;-62
2021/04/24 09:41:33;;;;;;;4.47;2.57;;;;;;;;;;5049971;28;20769;-62
2021/04/24 09:44:04;;;;;;;4.00;2.60;;;;;;;;;;5049743;28;20446;-62
2021/04/24 09:46:30;;;;;;;3.50;2.33;;;;;;;;;;5050091;28;20759;-62
2021/04/24 09:49:15;;;;;;;3.70;2.03;;;;;;;;;;5050992;28;20430;-62
2021/04/24 09:51:42;;;;;;;3.57;2.63;;;;;;;;;;5054831;28;20405;-62
2021/04/24 09:54:09;;;;;;;3.40;2.37;;;;;;;;;;5054432;28;20468;-62
2021/04/24 09:56:35;;;;;;;6.13;2.50;;;;;;;;;;5055155;28;20420;-62
2021/04/24 09:59:05;;;;;;;3.73;2.07;;;;;;;;;;5053565;28;20444;-63
2021/04/24 10:01:32;;;;;;;2.30;2.10;;;;;;;;;;5053670;28;20407;-62
2021/04/24 10:03:59;;;;;;;4.17;2.20;;;;;;;;;;5054489;28;20440;-62
2021/04/24 10:06:25;;;;;;;2.00;1.30;;;;;;;;;;5054980;28;20417;-62
2021/04/24 10:08:51;;;;;;;2.33;2.13;;;;;;;;;;5054268;28;20907;-62
2021/04/24 10:11:27;;;;;;;3.73;1.87;;;;;;;;;;5054652;28;20867;-62
2021/04/24 10:13:54;;;;;;;5.27;2.67;;;;;;;;;;5054438;28;20579;-62
2021/04/24 10:16:32;;;;;;;5.90;2.87;;;;;;;;;;5054661;28;20422;-62
2021/04/24 10:18:58;;;;;;;3.00;2.23;;;;;;;;;;5052483;28;20417;-62
2021/04/24 10:21:25;;;;;;;3.20;2.23;;;;;;;;;;5054409;28;20410;-62
2021/04/24 10:23:51;;;;;;;2.50;2.30;;;;;;;;;;5054093;28;20480;-62
2021/04/24 10:26:17;;;;;;;3.73;2.50;;;;;;;;;;5054374;28;20406;-62
2021/04/24 10:28:44;;;;;;;4.50;2.97;;;;;;;;;;5053830;28;20803;-62
2021/04/24 10:31:10;;;;;;;4.37;3.00;;;;;;;;;;5054085;28;20409;-62
2021/04/24 10:33:36;;;;;;;4.43;2.10;;;;;;;;;;5054114;28;20469;-63
2021/04/24 10:36:02;;;;;;;2.43;1.97;;;;;;;;;;5053898;28;20406;-64
2021/04/24 10:38:31;;;;;;;2.60;1.70;;;;;;;;;;5054054;28;20477;-65
2021/04/24 10:40:57;;;;;;;3.10;2.20;;;;;;;;;;5053381;28;20929;-64
2021/04/24 10:43:24;;;;;;;3.53;2.40;;;;;;;;;;5054150;28;20426;-65
2021/04/24 10:45:50;;;;;;;4.13;2.03;;;;;;;;;;5054234;28;20466;-65
2021/04/24 10:48:23;;;;;;;3.50;2.47;;;;;;;;;;5053591;28;20443;-65
2021/04/24 10:50:49;;;;;;;4.20;2.00;;;;;;;;;;5053256;28;20413;-65
2021/04/24 10:53:23;;;;;;;3.90;2.40;;;;;;;;;;5053630;28;20468;-64
2021/04/24 10:55:50;;;;;;;3.20;2.67;;;;;;;;;;5055037;28;20407;-66
2021/04/24 10:58:17;;;;;;;3.23;2.80;;;;;;;;;;5053553;28;20889;-64
2021/04/24 11:00:44;;;;;;;3.90;2.47;;;;;;;;;;5052359;28;20412;-64
2021/04/24 11:03:11;;;;;;;3.93;2.63;;;;;;;;;;5053652;28;20422;-64
2021/04/24 11:05:49;;;;;;;3.70;2.30;;;;;;;;;;5053664;28;20434;-64
2021/04/24 11:08:23;;;;;;;3.30;2.27;;;;;;;;;;5053665;28;20413;-65
2021/04/24 11:10:55;;;;;;;3.33;2.13;;;;;;;;;;5052624;28;20387;-64
2021/04/24 11:13:24;;;;;;;4.87;2.43;;;;;;;;;;5053456;28;20439;-64
2021/04/24 11:15:50;;;;;;;4.80;2.40;;;;;;;;;;5051629;28;20911;-64
2021/04/24 11:18:17;;;;;;;3.33;2.03;;;;;;;;;;5053285;28;20410;-64
2021/04/24 11:20:46;;;;;;;3.80;2.20;;;;;;;;;;5052229;28;20413;-64
2021/04/24 11:23:31;;;;;;;2.60;1.90;;;;;;;;;;5053275;28;20427;-64
2021/04/24 11:25:57;;;;;;;3.30;2.10;;;;;;;;;;5053561;28;20443;-64
2021/04/24 11:28:23;;;;;;;3.87;2.50;;;;;;;;;;5053280;28;20407;-65
2021/04/24 11:30:49;;;;;;;7.17;2.30;;;;;;;;;;5052657;28;20841;-65
2021/04/24 11:33:34;;;;;;;3.37;2.27;;;;;;;;;;5052920;28;20556;-64
2021/04/24 11:36:16;;;;;;;2.87;2.10;;;;;;;;;;5052865;28;20442;-64
2021/04/24 11:38:57;;;;;;;2.93;2.10;;;;;;;;;;5052877;28;20503;-64
2021/04/24 11:41:30;;;;;;;3.40;2.30;;;;;;;;;;5053050;28;20394;-64
2021/04/24 11:43:57;;;;;;;3.50;2.17;;;;;;;;;;5052953;28;20483;-64
2021/04/24 11:46:33;;;;;;;4.73;3.07;;;;;;;;;;5053064;28;20409;-64
2021/04/24 11:49:00;;;;;;;2.50;2.23;;;;;;;;;;5051903;28;20388;-64
2021/04/24 11:51:43;;;;;;;4.30;2.10;;;;;;;;;;5052975;28;20410;-65
2021/04/24 11:54:14;;;;;;;3.40;2.10;;;;;;;;;;5052756;28;20793;-64
2021/04/24 11:56:43;;;;;;;3.10;2.30;;;;;;;;;;5052843;28;20393;-64
2021/04/24 11:59:10;;;;;;;4.70;2.80;;;;;;;;;;5052018;28;20398;-64
2021/04/24 12:01:36;;;;;;;3.50;3.00;;;;;;;;;;5052648;28;20432;-64
2021/04/24 12:04:02;;;;;;;2.83;2.50;;;;;;;;;;5052527;28;20775;-64
2021/04/24 12:06:37;;;;;;;2.67;2.37;;;;;;;;;;5052549;28;20426;-64
2021/04/24 12:09:04;;;;;;;3.90;2.30;;;;;;;;;;5051868;28;20414;-63
2021/04/24 12:11:30;;;;;;;5.30;2.73;;;;;;;;;;5052255;28;20749;-64
2021/04/24 12:13:57;;;;;;;6.17;3.23;;;;;;;;;;5051752;28;20462;-64
2021/04/24 12:16:37;;;;;;;2.57;2.10;;;;;;;;;;5052629;28;20470;-64
2021/04/24 12:19:21;;;;;;;4.00;2.33;;;;;;;;;;5051475;28;20410;-63
2021/04/24 12:21:58;;;;;;;2.47;2.07;;;;;;;;;;5052402;28;20437;-64
2021/04/24 12:24:24;;;;;;;5.00;2.97;;;;;;;;;;5051914;28;20943;-64
2021/04/24 12:26:50;;;;;;;4.87;2.83;;;;;;;;;;5052202;28;20403;-64
2021/04/24 12:29:36;;;;;;;9.30;2.60;;;;;;;;;;5051405;28;20380;-65
2021/04/24 12:32:11;;;;;;;3.87;2.43;;;;;;;;;;5051920;28;20487;-64
2021/04/24 12:34:37;;;;;;;2.43;2.10;;;;;;;;;;5052127;28;20531;-63
2021/04/24 12:37:03;;;;;;;3.27;2.30;;;;;;;;;;5051661;28;20460;-64
2021/04/24 12:39:31;;;;;;;3.63;2.90;;;;;;;;;;5051078;28;20373;-64
2021/04/24 12:41:59;;;;;;;4.13;2.80;;;;;;;;;;5050672;28;20419;-64
2021/04/24 12:44:29;;;;;;;3.93;2.43;;;;;;;;;;5051783;28;20430;-64
2021/04/24 12:46:55;;;;;;;5.07;3.63;;;;;;;;;;5051729;28;20490;-64
2021/04/24 12:49:21;;;;;;;1.83;1.67;;;;;;;;;;5050728;28;20436;-63
2021/04/24 12:51:59;;;;;;;4.60;2.90;;;;;;;;;;5051725;28;20413;-64
2021/04/24 12:54:25;;;;;;;3.83;1.73;;;;;;;;;;5051408;28;20485;-64
2021/04/24 12:56:51;;;;;;;6.03;1.93;;;;;;;;;;5051468;28;20414;-64
2021/04/24 12:59:23;;;;;;;4.43;2.60;;;;;;;;;;5050784;28;20407;-63
2021/04/24 13:01:49;;;;;;;3.10;2.50;;;;;;;;;;5051460;28;20427;-64
2021/04/24 13:04:16;;;;;;;4.30;3.00;;;;;;;;;;5051446;28;20775;-63
2021/04/24 13:06:53;;;;;;;3.10;2.80;;;;;;;;;;5051430;28;20409;-63
2021/04/24 13:09:21;;;;;;;3.93;2.93;;;;;;;;;;5050810;28;20564;-63
2021/04/24 13:11:49;;;;;;;4.43;2.97;;;;;;;;;;5051671;28;20963;-64
2021/04/24 13:14:19;;;;;;;6.17;2.17;;;;;;;;;;5050409;28;20473;-64
2021/04/24 13:16:45;;;;;;;3.77;2.40;;;;;;;;;;5050621;28;20460;-64
2021/04/24 13:19:12;;;;;;;2.13;1.53;;;;;;;;;;5050317;28;20485;-64
2021/04/24 13:21:42;;;;;;;3.00;1.70;;;;;;;;;;5050789;28;20377;-64
2021/04/24 13:24:08;;;;;;;2.43;2.10;;;;;;;;;;5050712;28;20506;-64
2021/04/24 13:26:36;;;;;;;3.97;2.40;;;;;;;;;;5050613;28;20905;-64
2021/04/24 13:29:09;;;;;;;13.47;11.23;;;;;;;;;;5050370;28;20411;-64
2021/04/24 13:31:35;;;;;;;5.03;4.40;;;;;;;;;;5050482;28;20417;-64
2021/04/24 13:34:02;;;;;;;3.17;2.87;;;;;;;;;;5050609;28;20490;-64
2021/04/24 13:36:27;;;;;;;2.77;2.57;;;;;;;;;;5050731;28;20425;-63
2021/04/24 13:39:00;;;;;;;3.53;1.97;;;;;;;;;;5049836;28;20378;-63
2021/04/24 13:41:26;;;;;;;4.70;2.80;;;;;;;;;;5050817;28;20406;-64
2021/04/24 13:43:52;;;;;;;4.50;2.33;;;;;;;;;;5050592;28;20732;-64
2021/04/24 13:46:18;;;;;;;2.90;2.27;;;;;;;;;;5050527;28;20425;-63
2021/04/24 13:48:44;;;;;;;2.10;1.90;;;;;;;;;;5050072;28;20440;-63
2021/04/24 13:51:10;;;;;;;3.83;2.73;;;;;;;;;;5049513;28;20768;-64
2021/04/24 13:53:36;;;;;;;3.60;1.60;;;;;;;;;;5051031;28;20436;-64
2021/04/24 13:56:02;;;;;;;3.03;2.83;;;;;;;;;;5050952;28;20411;-63
2021/04/24 13:58:28;;;;;;;45.20;38.20;;;;;;;;;;5050733;28;20464;-63
2021/04/24 14:00:54;;;;;;;57.60;38.17;;;;;;;;;;5050253;28;20778;-61
2021/04/24 14:03:20;;;;;;;60.57;41.60;;;;;;;;;;5050621;28;20438;-65
2021/04/24 14:05:46;;;;;;;13.63;8.80;;;;;;;;;;5051232;28;20418;-62
2021/04/24 14:08:12;;;;;;;8.33;3.23;;;;;;;;;;5050729;28;20411;-62
2021/04/24 14:10:38;;;;;;;3.47;2.87;;;;;;;;;;5050245;28;20410;-62
2021/04/24 14:13:06;;;;;;;4.03;1.60;;;;;;;;;;5050663;28;20940;-62
2021/04/24 14:15:33;;;;;;;4.23;2.00;;;;;;;;;;5051739;28;20488;-63
2021/04/24 14:17:59;;;;;;;4.87;2.50;;;;;;;;;;5050434;28;20402;-63
2021/04/24 14:20:25;;;;;;;2.63;2.43;;;;;;;;;;5049892;28;20472;-63
2021/04/24 14:22:51;;;;;;;1.70;1.60;;;;;;;;;;5050453;28;20920;-63
2021/04/24 14:25:17;;;;;;;3.43;3.13;;;;;;;;;;5050862;28;20411;-63
2021/04/24 14:27:44;;;;;;;4.23;3.07;;;;;;;;;;5050375;28;20418;-63
2021/04/24 14:30:11;;;;;;;4.50;3.60;;;;;;;;;;5049755;28;20406;-63
2021/04/24 14:32:37;;;;;;;5.60;3.20;;;;;;;;;;5050066;28;20434;-63
2021/04/24 14:35:04;;;;;;;3.80;2.27;;;;;;;;;;5050437;28;20560;-63
2021/04/24 14:37:30;;;;;;;7.00;4.13;;;;;;;;;;5053827;28;20476;-63
2021/04/24 14:39:56;;;;;;;5.80;3.70;;;;;;;;;;5053223;28;20413;-63
2021/04/24 14:42:22;;;;;;;2.23;2.03;;;;;;;;;;5054068;28;20480;-63
2021/04/24 14:44:48;;;;;;;6.70;2.93;;;;;;;;;;5052930;28;20445;-64